createdAt,value
2022-11-16T00:02:14.021Z,16.38
2022-11-16T00:04:42.604Z,16.42
2022-11-16T00:07:11.462Z,17.50
2022-11-16T00:09:39.620Z,16.42
2022-11-16T00:12:09.614Z,16.58
2022-11-16T00:14:37.681Z,15.20
2022-11-16T00:17:05.928Z,14.60
2022-11-16T00:19:35.217Z,14.60
2022-11-16T00:22:03.240Z,16.10
2022-11-16T00:24:31.199Z,13.40
2022-11-16T00:26:59.155Z,13.38
2022-11-16T00:29:28.016Z,14.60
2022-11-16T00:31:56.210Z,14.98
2022-11-16T00:34:24.840Z,14.82
2022-11-16T00:36:54.310Z,14.48
2022-11-16T00:39:22.275Z,14.55
2022-11-16T00:41:50.621Z,15.77
2022-11-16T00:44:18.971Z,14.65
2022-11-16T00:46:46.941Z,14.15
2022-11-16T00:49:15.040Z,14.02
2022-11-16T00:51:43.463Z,14.77
2022-11-16T00:54:13.554Z,14.20
2022-11-16T00:56:41.757Z,14.63
2022-11-16T00:59:09.724Z,15.98
2022-11-16T01:01:37.872Z,15.13
2022-11-16T01:04:07.526Z,13.80
2022-11-16T01:06:37.071Z,15.85
2022-11-16T01:09:04.992Z,15.48
2022-11-16T01:11:51.633Z,15.38
2022-11-16T01:14:19.633Z,18.20
2022-11-16T01:16:50.772Z,16.20
2022-11-16T01:19:18.812Z,15.75
2022-11-16T01:21:46.723Z,15.70
2022-11-16T01:24:15.016Z,14.45
2022-11-16T01:26:44.395Z,16.20
2022-11-16T01:29:12.772Z,15.98
2022-11-16T01:31:44.959Z,16.13
2022-11-16T01:34:12.885Z,14.45
2022-11-16T01:36:40.988Z,15.15
2022-11-16T01:39:09.027Z,14.98
2022-11-16T01:41:58.540Z,14.07
2022-11-16T01:45:02.269Z,13.68
2022-11-16T01:47:31.713Z,12.98
2022-11-16T01:50:07.566Z,13.05
2022-11-16T01:52:40.421Z,12.07
2022-11-16T01:55:08.929Z,13.05
2022-11-16T01:57:58.621Z,13.77
2022-11-16T02:00:27.071Z,12.55
2022-11-16T02:03:07.974Z,11.80
2022-11-16T02:05:58.521Z,13.23
2022-11-16T02:08:58.066Z,11.73
2022-11-16T02:11:54.053Z,12.07
2022-11-16T02:14:42.968Z,13.10
2022-11-16T02:17:22.407Z,12.70
2022-11-16T02:20:14.177Z,13.27
2022-11-16T02:22:56.867Z,13.43
2022-11-16T02:25:35.691Z,13.48
2022-11-16T02:28:22.012Z,13.13
2022-11-16T02:30:55.541Z,13.45
2022-11-16T02:33:32.084Z,12.75
2022-11-16T02:36:04.057Z,13.13
2022-11-16T02:38:36.939Z,13.90
2022-11-16T02:41:10.546Z,14.07
2022-11-16T02:43:43.835Z,12.63
2022-11-16T02:46:27.044Z,14.55
2022-11-16T02:48:59.456Z,14.43
2022-11-16T02:51:29.315Z,12.48
2022-11-16T02:54:03.792Z,12.82
2022-11-16T02:56:44.109Z,13.90
2022-11-16T02:59:17.412Z,13.25
2022-11-16T03:04:23.959Z,12.63
2022-11-16T03:06:52.806Z,11.32
2022-11-16T03:09:25.394Z,12.13
2022-11-16T03:12:02.827Z,14.02
2022-11-16T03:14:38.063Z,13.68
2022-11-16T03:17:12.558Z,14.57
2022-11-16T03:19:46.185Z,15.23
2022-11-16T03:22:18.599Z,13.48
2022-11-16T03:24:46.945Z,13.82
2022-11-16T03:27:26.153Z,16.00
2022-11-16T03:30:03.420Z,13.27
2022-11-16T03:32:39.394Z,14.40
2022-11-16T03:35:16.491Z,15.68
2022-11-16T03:37:47.307Z,17.08
2022-11-16T03:40:17.760Z,14.73
2022-11-16T03:42:49.474Z,17.98
2022-11-16T03:45:19.799Z,16.35
2022-11-16T03:47:49.229Z,16.73
2022-11-16T03:50:17.414Z,17.48
2022-11-16T03:52:45.327Z,17.27
2022-11-16T03:55:15.055Z,16.55
2022-11-16T03:57:44.759Z,16.85
2022-11-16T04:00:13.870Z,17.90
2022-11-16T04:02:43.136Z,20.35
2022-11-16T04:05:36.097Z,17.88
2022-11-16T04:08:23.339Z,16.95
2022-11-16T04:11:08.917Z,20.85
2022-11-16T04:13:55.366Z,19.20
2022-11-16T04:16:40.739Z,20.45
2022-11-16T04:19:27.365Z,20.10
2022-11-16T04:22:16.775Z,17.27
2022-11-16T04:24:48.860Z,19.63
2022-11-16T04:27:37.376Z,18.00
2022-11-16T04:30:07.194Z,18.45
2022-11-16T04:32:53.137Z,18.88
2022-11-16T04:35:38.666Z,18.20
2022-11-16T04:38:09.803Z,19.63
2022-11-16T04:40:38.308Z,18.20
2022-11-16T04:43:05.877Z,17.98
2022-11-16T04:45:54.802Z,19.08
2022-11-16T04:48:27.047Z,20.33
2022-11-16T04:50:56.071Z,20.20
2022-11-16T04:53:27.879Z,17.73
2022-11-16T04:56:03.766Z,18.35
2022-11-16T04:58:33.659Z,19.05
2022-11-16T05:01:01.785Z,18.85
2022-11-16T05:03:29.909Z,18.77
2022-11-16T05:05:57.828Z,20.05
2022-11-16T05:08:27.253Z,18.85
2022-11-16T05:10:56.422Z,19.52
2022-11-16T05:13:24.538Z,19.90
2022-11-16T05:15:53.909Z,22.17
2022-11-16T05:18:25.072Z,18.83
2022-11-16T05:21:01.496Z,19.98
2022-11-16T05:23:56.278Z,21.35
2022-11-16T05:26:27.227Z,19.15
2022-11-16T05:28:55.884Z,20.15
2022-11-16T05:31:23.882Z,19.80
2022-11-16T05:33:51.765Z,19.08
2022-11-16T05:36:20.592Z,18.35
2022-11-16T05:38:52.699Z,21.40
2022-11-16T05:41:26.397Z,20.95
2022-11-16T05:43:55.230Z,19.55
2022-11-16T05:46:24.619Z,20.83
2022-11-16T05:48:52.613Z,21.13
2022-11-16T05:51:20.665Z,19.55
2022-11-16T05:53:50.337Z,21.83
2022-11-16T05:56:22.498Z,21.48
2022-11-16T05:58:51.264Z,19.38
2022-11-16T06:01:19.442Z,20.15
2022-11-16T06:03:47.556Z,18.40
2022-11-16T06:06:16.236Z,20.23
2022-11-16T06:08:44.732Z,17.70
2022-11-16T06:11:18.098Z,20.58
2022-11-16T06:13:46.777Z,19.60
2022-11-16T06:16:15.190Z,20.13
2022-11-16T06:18:45.287Z,21.17
2022-11-16T06:21:17.015Z,19.08
2022-11-16T06:23:45.389Z,20.77
2022-11-16T06:26:13.676Z,19.67
2022-11-16T06:28:43.106Z,19.25
2022-11-16T06:31:10.994Z,18.88
2022-11-16T06:33:42.311Z,17.13
2022-11-16T06:36:21.028Z,20.55
2022-11-16T06:38:49.693Z,22.33
2022-11-16T06:41:17.969Z,20.17
2022-11-16T06:43:50.947Z,18.08
2022-11-16T06:46:22.064Z,19.30
2022-11-16T06:48:50.022Z,20.10
2022-11-16T06:51:18.956Z,23.17
2022-11-16T06:53:47.777Z,21.35
2022-11-16T06:56:18.477Z,20.42
2022-11-16T06:58:59.527Z,20.00
2022-11-16T07:01:29.279Z,19.50
2022-11-16T07:06:33.299Z,17.27
2022-11-16T07:09:01.411Z,18.27
2022-11-16T07:11:32.086Z,19.98
2022-11-16T07:14:02.440Z,21.63
2022-11-16T07:16:31.118Z,19.58
2022-11-16T07:19:02.694Z,19.98
2022-11-16T07:21:33.165Z,19.90
2022-11-16T07:24:04.104Z,18.67
2022-11-16T07:26:33.536Z,20.33
2022-11-16T07:29:09.429Z,17.85
2022-11-16T07:31:41.516Z,21.15
2022-11-16T07:34:38.379Z,20.50
2022-11-16T07:37:09.874Z,18.00
2022-11-16T07:39:38.567Z,18.05
2022-11-16T07:42:13.599Z,21.58
2022-11-16T07:45:01.489Z,19.23
2022-11-16T07:47:29.533Z,21.40
2022-11-16T07:49:58.061Z,20.55
2022-11-16T07:52:28.615Z,19.02
2022-11-16T07:54:58.824Z,20.08
2022-11-16T07:57:28.825Z,19.38
2022-11-16T08:00:01.222Z,19.75
2022-11-16T08:02:43.261Z,17.60
2022-11-16T08:05:18.177Z,20.23
2022-11-16T08:07:46.861Z,18.27
2022-11-16T08:10:15.288Z,18.33
2022-11-16T08:12:43.610Z,20.13
2022-11-16T08:15:14.162Z,18.02
2022-11-16T08:17:42.505Z,16.20
2022-11-16T08:20:13.802Z,17.05
2022-11-16T08:22:42.866Z,17.60
2022-11-16T08:25:13.884Z,17.90
2022-11-16T08:27:45.740Z,16.02
2022-11-16T08:30:18.123Z,17.20
2022-11-16T08:32:46.629Z,23.55
2022-11-16T08:35:16.512Z,25.90
2022-11-16T08:37:46.061Z,31.35
2022-11-16T08:40:14.574Z,18.88
2022-11-16T08:42:44.150Z,16.85
2022-11-16T08:45:15.333Z,16.00
2022-11-16T08:47:43.570Z,22.75
2022-11-16T08:50:11.848Z,18.10
2022-11-16T08:52:39.952Z,15.57
2022-11-16T08:55:09.019Z,15.13
2022-11-16T08:57:37.856Z,20.35
2022-11-16T09:00:11.928Z,15.25
2022-11-16T09:02:41.324Z,14.40
2022-11-16T09:05:11.944Z,14.32
2022-11-16T09:07:40.704Z,14.57
2022-11-16T09:10:09.726Z,13.18
2022-11-16T09:12:38.046Z,13.35
2022-11-16T09:15:25.045Z,13.73
2022-11-16T09:17:56.206Z,14.52
2022-11-16T09:20:24.255Z,13.13
2022-11-16T09:22:52.188Z,12.43
2022-11-16T09:25:20.200Z,12.77
2022-11-16T09:27:48.207Z,10.73
2022-11-16T09:30:18.383Z,10.82
2022-11-16T09:32:49.077Z,8.93
2022-11-16T09:35:22.704Z,10.27
2022-11-16T09:37:50.671Z,8.77
2022-11-16T09:40:18.811Z,9.18
2022-11-16T09:43:02.056Z,8.90
2022-11-16T09:45:42.820Z,8.43
2022-11-16T09:48:13.511Z,8.80
2022-11-16T09:50:50.806Z,8.05
2022-11-16T09:53:28.116Z,8.18
2022-11-16T09:55:59.926Z,8.07
2022-11-16T09:58:32.813Z,9.95
2022-11-16T10:01:07.384Z,10.10
2022-11-16T10:03:41.319Z,10.43
2022-11-16T10:06:20.910Z,10.70
2022-11-16T10:08:51.292Z,8.60
2022-11-16T10:11:46.300Z,8.80
2022-11-16T10:15:01.696Z,8.15
2022-11-16T10:17:42.849Z,12.30
2022-11-16T10:20:31.366Z,10.65
2022-11-16T10:23:12.770Z,15.43
2022-11-16T10:25:44.607Z,13.77
2022-11-16T10:28:38.544Z,11.13
2022-11-16T10:31:14.772Z,9.45
2022-11-16T10:33:45.994Z,11.95
2022-11-16T10:36:15.723Z,10.63
2022-11-16T10:38:45.538Z,11.60
2022-11-16T10:41:21.288Z,9.13
2022-11-16T10:43:49.714Z,8.77
2022-11-16T10:46:22.935Z,11.10
2022-11-16T10:48:59.992Z,9.90
2022-11-16T10:51:28.040Z,9.15
2022-11-16T10:53:57.511Z,9.70
2022-11-16T10:56:30.094Z,10.00
2022-11-16T10:59:02.824Z,8.65
2022-11-16T11:01:34.348Z,11.38
2022-11-16T11:04:20.809Z,10.48
2022-11-16T11:06:51.375Z,11.90
2022-11-16T11:09:31.574Z,11.18
2022-11-16T11:12:33.079Z,11.20
2022-11-16T11:15:05.702Z,11.73
2022-11-16T11:17:35.762Z,10.23
2022-11-16T11:20:07.049Z,11.85
2022-11-16T11:22:42.700Z,11.07
2022-11-16T11:25:21.378Z,10.80
2022-11-16T11:27:53.684Z,11.60
2022-11-16T11:30:22.971Z,10.90
2022-11-16T11:32:54.065Z,10.45
2022-11-16T11:35:32.517Z,10.27
2022-11-16T11:38:08.035Z,11.25
2022-11-16T11:40:37.890Z,10.18
2022-11-16T11:43:23.375Z,11.57
2022-11-16T11:45:57.681Z,10.50
2022-11-16T11:48:47.778Z,10.02
2022-11-16T11:51:22.207Z,10.65
2022-11-16T11:53:56.804Z,12.98
2022-11-16T11:58:56.459Z,11.10
2022-11-16T12:01:52.607Z,11.43
2022-11-16T12:04:42.560Z,11.38
2022-11-16T12:07:22.262Z,10.57
2022-11-16T12:09:59.807Z,11.20
2022-11-16T12:12:46.052Z,12.88
2022-11-16T12:15:36.632Z,13.45
2022-11-16T12:18:20.573Z,10.85
2022-11-16T12:20:59.911Z,11.43
2022-11-16T12:23:53.615Z,10.63
2022-11-16T12:26:29.995Z,10.75
2022-11-16T12:29:13.838Z,11.32
2022-11-16T12:31:55.856Z,10.90
2022-11-16T12:34:39.148Z,9.63
2022-11-16T12:37:17.091Z,12.02
2022-11-16T12:40:01.531Z,10.15
2022-11-16T12:42:41.645Z,10.13
2022-11-16T12:45:29.026Z,9.43
2022-11-16T12:48:28.509Z,9.55
2022-11-16T12:51:00.710Z,11.52
2022-11-16T12:53:45.172Z,10.38
2022-11-16T12:56:23.963Z,10.43
2022-11-16T12:59:07.819Z,10.07
2022-11-16T13:01:43.127Z,10.50
2022-11-16T13:04:16.215Z,14.18
2022-11-16T13:06:51.863Z,11.75
2022-11-16T13:09:24.485Z,10.10
2022-11-16T13:11:55.641Z,8.60
2022-11-16T13:14:27.272Z,9.73
2022-11-16T13:16:58.497Z,9.68
2022-11-16T13:19:27.365Z,10.05
2022-11-16T13:22:03.103Z,9.13
2022-11-16T13:24:45.054Z,8.45
2022-11-16T13:27:31.823Z,8.95
2022-11-16T13:30:06.622Z,8.80
2022-11-16T13:32:48.238Z,9.20
2022-11-16T13:35:18.466Z,9.27
2022-11-16T13:37:48.337Z,8.93
2022-11-16T13:40:25.428Z,8.93
2022-11-16T13:43:04.052Z,9.40
2022-11-16T13:45:35.884Z,8.73
2022-11-16T13:48:23.443Z,8.23
2022-11-16T13:50:55.059Z,7.90
2022-11-16T13:54:37.786Z,24.40
2022-11-16T13:56:16.005Z,8.48
2022-11-16T13:58:47.586Z,8.18
2022-11-16T14:01:16.370Z,7.43
2022-11-16T14:03:46.716Z,9.40
2022-11-16T14:06:57.277Z,8.80
2022-11-16T14:09:49.185Z,8.00
2022-11-16T14:12:59.595Z,7.70
2022-11-16T14:15:37.613Z,8.20
2022-11-16T14:18:33.484Z,8.10
2022-11-16T14:21:14.723Z,7.60
2022-11-16T14:24:08.809Z,8.02
2022-11-16T14:26:48.462Z,7.05
2022-11-16T14:29:40.057Z,8.25
2022-11-16T14:32:22.706Z,7.30
2022-11-16T14:34:52.867Z,7.22
2022-11-16T14:37:35.786Z,8.00
2022-11-16T14:40:08.015Z,8.15
2022-11-16T14:43:09.435Z,8.15
2022-11-16T14:45:38.296Z,7.65
2022-11-16T14:48:14.244Z,7.60
2022-11-16T14:50:46.341Z,8.05
2022-11-16T14:53:19.123Z,7.63
2022-11-16T14:55:47.244Z,6.25
2022-11-16T14:58:22.263Z,7.05
2022-11-16T15:00:56.094Z,6.28
2022-11-16T15:03:26.573Z,6.75
2022-11-16T15:05:59.317Z,7.15
2022-11-16T15:08:34.309Z,7.13
2022-11-16T15:11:02.640Z,6.88
2022-11-16T15:13:30.701Z,6.93
2022-11-16T15:16:15.561Z,6.57
2022-11-16T15:21:24.712Z,5.82
2022-11-16T15:24:23.561Z,6.70
2022-11-16T15:26:42.414Z,5.57
2022-11-16T15:29:16.419Z,6.80
2022-11-16T15:31:44.659Z,6.45
2022-11-16T15:34:13.861Z,7.63
2022-11-16T15:36:42.352Z,5.80
2022-11-16T15:39:16.970Z,6.10
2022-11-16T15:41:45.967Z,6.75
2022-11-16T15:44:16.585Z,5.45
2022-11-16T15:46:48.276Z,5.47
2022-11-16T15:49:27.558Z,6.03
2022-11-16T15:51:55.615Z,5.55
2022-11-16T15:54:26.622Z,4.93
2022-11-16T15:56:57.116Z,5.13
2022-11-16T15:59:29.083Z,5.07
2022-11-16T16:01:57.528Z,4.63
2022-11-16T16:04:27.061Z,5.22
2022-11-16T16:06:56.666Z,4.70
2022-11-16T16:09:28.429Z,5.47
2022-11-16T16:11:58.452Z,5.20
2022-11-16T16:14:29.695Z,5.80
2022-11-16T16:16:59.272Z,5.68
2022-11-16T16:19:34.538Z,5.53
2022-11-16T16:22:03.642Z,5.10
2022-11-16T16:24:42.007Z,5.50
2022-11-16T16:27:12.404Z,5.30
2022-11-16T16:29:42.432Z,6.10
2022-11-16T16:32:23.901Z,6.10
2022-11-16T16:34:52.571Z,10.10
2022-11-16T16:37:21.055Z,6.47
2022-11-16T16:39:51.476Z,6.07
2022-11-16T16:42:19.951Z,6.38
2022-11-16T16:44:49.174Z,6.32
2022-11-16T16:47:20.559Z,5.97
2022-11-16T16:49:48.693Z,4.97
2022-11-16T16:52:17.331Z,5.47
2022-11-16T16:54:45.377Z,5.18
2022-11-16T16:57:16.640Z,5.55
2022-11-16T16:59:48.427Z,5.25
2022-11-16T17:02:22.455Z,5.70
2022-11-16T17:04:50.423Z,5.15
2022-11-16T17:07:18.454Z,5.82
2022-11-16T17:09:46.568Z,5.10
2022-11-16T17:12:16.044Z,5.53
2022-11-16T17:14:51.223Z,4.82
2022-11-16T17:17:19.529Z,5.35
2022-11-16T17:19:48.283Z,5.55
2022-11-16T17:22:16.285Z,6.00
2022-11-16T17:24:46.044Z,6.20
2022-11-16T17:27:15.479Z,7.43
2022-11-16T17:29:46.149Z,5.82
2022-11-16T17:32:14.237Z,6.63
2022-11-16T17:34:42.267Z,5.78
2022-11-16T17:37:10.241Z,5.50
2022-11-16T17:39:38.249Z,5.60
2022-11-16T17:42:06.195Z,4.93
2022-11-16T17:44:35.556Z,5.10
2022-11-16T17:47:03.552Z,5.88
2022-11-16T17:49:31.822Z,5.78
2022-11-16T17:51:59.888Z,6.50
2022-11-16T17:54:27.895Z,5.35
2022-11-16T17:56:55.983Z,4.50
2022-11-16T17:59:29.256Z,4.70
2022-11-16T18:01:59.268Z,4.97
2022-11-16T18:04:27.266Z,4.55
2022-11-16T18:06:59.552Z,4.63
2022-11-16T18:09:27.649Z,4.50
2022-11-16T18:11:55.854Z,4.13
2022-11-16T18:14:23.946Z,4.63
2022-11-16T18:16:52.362Z,4.30
2022-11-16T18:19:21.775Z,4.63
2022-11-16T18:21:49.957Z,4.25
2022-11-16T18:24:17.995Z,4.38
2022-11-16T18:26:46.067Z,4.07
2022-11-16T18:29:15.994Z,4.07
2022-11-16T18:31:44.264Z,4.07
2022-11-16T18:34:13.473Z,4.75
2022-11-16T18:36:42.927Z,4.13
2022-11-16T18:39:10.954Z,4.18
2022-11-16T18:41:48.599Z,4.45
2022-11-16T18:44:19.835Z,4.13
2022-11-16T18:46:50.325Z,4.40
2022-11-16T18:49:18.252Z,3.65
2022-11-16T18:51:47.857Z,3.45
2022-11-16T18:54:15.828Z,4.32
2022-11-16T18:56:43.792Z,4.82
2022-11-16T18:59:11.770Z,3.92
2022-11-16T19:01:39.832Z,3.95
2022-11-16T19:04:08.740Z,4.22
2022-11-16T19:06:36.857Z,3.80
2022-11-16T19:09:09.588Z,4.53
2022-11-16T19:11:37.822Z,3.55
2022-11-16T19:14:07.606Z,3.85
2022-11-16T19:16:36.652Z,3.30
2022-11-16T19:19:05.252Z,3.80
2022-11-16T19:21:33.364Z,4.07
2022-11-16T19:24:01.361Z,3.63
2022-11-16T19:26:30.827Z,3.65
2022-11-16T19:29:04.056Z,3.60
2022-11-16T19:31:33.350Z,3.60
2022-11-16T19:34:03.024Z,4.78
2022-11-16T19:36:32.372Z,6.07
2022-11-16T19:39:00.416Z,11.90
2022-11-16T19:41:30.239Z,4.03
2022-11-16T19:44:02.647Z,3.40
2022-11-16T19:46:32.724Z,3.97
2022-11-16T19:49:01.385Z,3.95
2022-11-16T19:51:31.319Z,3.97
2022-11-16T19:54:00.492Z,3.38
2022-11-16T19:56:30.085Z,3.42
2022-11-16T19:58:58.502Z,3.22
2022-11-16T20:01:29.388Z,3.40
2022-11-16T20:04:00.451Z,3.28
2022-11-16T20:06:30.348Z,3.65
2022-11-16T20:09:00.703Z,3.30
2022-11-16T20:11:33.651Z,3.45
2022-11-16T20:14:02.729Z,3.38
2022-11-16T20:16:38.135Z,3.60
2022-11-16T20:19:07.312Z,3.88
2022-11-16T20:21:37.274Z,4.38
2022-11-16T20:24:07.496Z,3.47
2022-11-16T20:26:38.574Z,3.50
2022-11-16T20:29:06.700Z,4.40
2022-11-16T20:31:35.354Z,4.03
2022-11-16T20:34:05.787Z,4.10
2022-11-16T20:36:35.858Z,3.63
2022-11-16T20:39:04.181Z,3.65
2022-11-16T20:41:36.646Z,4.22
2022-11-16T20:44:10.620Z,4.55
2022-11-16T20:46:43.831Z,3.67
2022-11-16T20:49:12.064Z,3.85
2022-11-16T20:51:40.587Z,3.30
2022-11-16T20:54:08.825Z,3.33
2022-11-16T20:56:38.294Z,4.18
2022-11-16T20:59:06.358Z,4.32
2022-11-16T21:01:34.721Z,3.95
2022-11-16T21:04:04.808Z,3.65
2022-11-16T21:06:33.746Z,3.65
2022-11-16T21:09:02.232Z,4.60
2022-11-16T21:11:51.711Z,16.90
2022-11-16T21:14:20.690Z,4.55
2022-11-16T21:16:48.821Z,3.63
2022-11-16T21:19:16.950Z,5.15
2022-11-16T21:21:45.067Z,4.75
2022-11-16T21:24:13.260Z,3.80
2022-11-16T21:26:41.224Z,3.78
2022-11-16T21:29:09.295Z,3.88
2022-11-16T21:31:38.931Z,4.07
2022-11-16T21:34:07.677Z,4.18
2022-11-16T21:36:36.131Z,4.13
2022-11-16T21:39:04.551Z,4.65
2022-11-16T21:41:32.668Z,3.88
2022-11-16T21:44:00.838Z,3.88
2022-11-16T21:46:29.223Z,4.10
2022-11-16T21:49:01.159Z,3.60
2022-11-16T21:51:31.720Z,3.00
2022-11-16T21:53:59.689Z,4.07
2022-11-16T21:56:27.810Z,3.78
2022-11-16T21:58:55.854Z,3.63
2022-11-16T22:01:24.934Z,3.03
2022-11-16T22:04:06.930Z,3.47
2022-11-16T22:06:54.251Z,3.42
2022-11-16T22:09:23.615Z,3.60
2022-11-16T22:11:51.552Z,3.75
2022-11-16T22:14:19.534Z,3.55
2022-11-16T22:16:47.514Z,3.50
2022-11-16T22:19:15.519Z,3.80
2022-11-16T22:21:44.796Z,3.38
2022-11-16T22:24:12.709Z,3.97
2022-11-16T22:26:41.049Z,3.85
2022-11-16T22:29:09.089Z,3.80
2022-11-16T22:31:37.097Z,3.15
2022-11-16T22:34:05.270Z,3.65
2022-11-16T22:36:33.463Z,3.70
2022-11-16T22:39:03.072Z,3.95
2022-11-16T22:41:32.110Z,4.15
2022-11-16T22:44:00.328Z,3.90
2022-11-16T22:46:28.276Z,5.50
2022-11-16T22:48:56.676Z,4.10
2022-11-16T22:51:26.052Z,4.07
2022-11-16T22:53:55.414Z,3.47
2022-11-16T22:56:25.073Z,4.00
2022-11-16T22:58:53.649Z,4.47
2022-11-16T23:01:22.133Z,3.85
2022-11-16T23:03:50.499Z,4.03
2022-11-16T23:06:18.660Z,4.13
2022-11-16T23:08:46.770Z,4.15
2022-11-16T23:11:34.678Z,4.18
2022-11-16T23:14:23.708Z,3.85
2022-11-16T23:16:51.978Z,5.57
2022-11-16T23:19:50.038Z,5.05
2022-11-16T23:22:37.252Z,5.35
2022-11-16T23:25:25.312Z,4.60
2022-11-16T23:27:57.907Z,4.93
2022-11-16T23:30:27.850Z,4.60
2022-11-16T23:32:55.960Z,5.10
2022-11-16T23:35:24.445Z,4.43
2022-11-16T23:37:53.831Z,5.28
2022-11-16T23:40:23.185Z,4.68
2022-11-16T23:43:09.997Z,4.35
2022-11-16T23:45:39.985Z,4.25
2022-11-16T23:48:08.690Z,4.25
2022-11-16T23:50:37.534Z,4.15
2022-11-16T23:53:06.498Z,4.63
2022-11-16T23:55:35.590Z,4.10
2022-11-16T23:58:03.536Z,4.78
